^^
Saratoga-Weather Station Historical Data
Daily Summary for August 14, 2019 Units:  English    Metric   Both
Daily Weekly Monthly Yearly
  High: Low: Average:
Temperature: 83.1 °F 63.7 °F 73.8 °F
Dew Point: 63.3 °F 55.4 °F 59.9 °F
Humidity: 87.5% 43.3% 63%
Wind Speed: 13.2mph 0mph 4.7mph
Wind Gust: 20mph - -
Wind- - SSE
Pressure: 30 in 29.8 in -
Precipitation: 0 in    
 
 
Tabular Data for August 14, 2019
Time Temperature Dew Point Pressure Wind Wind Speed Wind Gust Humidity Rainfall Rate (Hourly) solar
00:04 71.1 °F 63.3 °F 29.8 in WSW 6.3 mph 7 mph 76.7% 0 in 0 W/m2
00:09 70.9 °F 63.1 °F 29.8 in WSW 6 mph 8 mph 76.6% 0 in 0 W/m2
00:14 70.7 °F 63 °F 29.8 in SW 6.6 mph 6 mph 76.4% 0 in 0 W/m2
00:19 70.7 °F 62.8 °F 29.8 in WSW 6.9 mph 8 mph 76.2% 0 in 0 W/m2
00:24 70.3 °F 62.8 °F 29.8 in WSW 7.2 mph 8 mph 77% 0 in 0 W/m2
00:29 70.2 °F 62.6 °F 29.8 in WSW 6.3 mph 9 mph 77% 0 in 0 W/m2
00:34 70 °F 62.6 °F 29.8 in WSW 6.6 mph 8 mph 77% 0 in 0 W/m2
00:39 69.8 °F 62.4 °F 29.8 in WSW 7.7 mph 8 mph 77% 0 in 0 W/m2
00:44 69.6 °F 62.2 °F 29.8 in WSW 6 mph 9 mph 77% 0 in 0 W/m2
00:49 69.4 °F 62.1 °F 29.8 in WSW 5.8 mph 7 mph 77% 0 in 0 W/m2
00:54 69.4 °F 61.5 °F 29.8 in WSW 5.3 mph 7 mph 76.3% 0 in 0 W/m2
00:59 69.3 °F 61.3 °F 29.8 in WSW 3.6 mph 6 mph 76% 0 in 0 W/m2
01:04 69.3 °F 61.3 °F 29.8 in SW 3.9 mph 4.2 mph 76% 0 in 0 W/m2
01:09 69.1 °F 61.3 °F 29.8 in SW 3.9 mph 5 mph 76% 0 in 0 W/m2
01:14 69.1 °F 61.2 °F 29.8 in WSW 4.6 mph 5 mph 76% 0 in 0 W/m2
01:19 68.9 °F 61 °F 29.8 in WSW 4.6 mph 6 mph 75.9% 0 in 0 W/m2
01:24 68.7 °F 60.4 °F 29.8 in WSW 4.4 mph 5 mph 75% 0 in 0 W/m2
01:29 68.5 °F 60.3 °F 29.8 in WSW 5 mph 5 mph 74.8% 0 in 0 W/m2
01:34 68.4 °F 59.7 °F 29.8 in WSW 5.4 mph 6 mph 73.6% 0 in 0 W/m2
01:39 68.4 °F 59.4 °F 29.8 in WSW 4.5 mph 6 mph 73% 0 in 0 W/m2
01:44 68.2 °F 59.2 °F 29.8 in SW 4.4 mph 5 mph 73% 0 in 0 W/m2
01:49 68.2 °F 59 °F 29.8 in WSW 3.4 mph 5 mph 72.6% 0 in 0 W/m2
01:54 68 °F 58.6 °F 29.8 in WSW 3.7 mph 4 mph 72% 0 in 0 W/m2
01:59 67.8 °F 58.5 °F 29.8 in WSW 3 mph 5 mph 72% 0 in 0 W/m2
02:04 67.8 °F 58.5 °F 29.8 in SW 3.4 mph 3 mph 72% 0 in 0 W/m2
02:09 67.6 °F 58.3 °F 29.8 in SW 3.8 mph 5 mph 72% 0 in 0 W/m2
02:14 67.5 °F 58.1 °F 29.8 in SW 4.4 mph 4.5 mph 72% 0 in 0 W/m2
02:19 67.3 °F 57.7 °F 29.8 in WSW 5.5 mph 6 mph 71.5% 0 in 0 W/m2
02:24 67.3 °F 57.2 °F 29.8 in WSW 6.1 mph 7 mph 70.1% 0 in 0 W/m2
02:29 67.1 °F 57 °F 29.8 in WSW 5.1 mph 7 mph 70% 0 in 0 W/m2
02:34 67.1 °F 57 °F 29.8 in WSW 4.3 mph 6 mph 70% 0 in 0 W/m2
02:39 67.1 °F 56.8 °F 29.8 in WSW 5.1 mph 5 mph 70% 0 in 0 W/m2
02:44 66.9 °F 56.8 °F 29.8 in WSW 4.6 mph 6 mph 70% 0 in 0 W/m2
02:49 66.9 °F 56.7 °F 29.8 in WSW 5.5 mph 6 mph 70% 0 in 0 W/m2
02:54 66.7 °F 56.7 °F 29.8 in WSW 4.6 mph 7 mph 70% 0 in 0 W/m2
02:59 66.6 °F 56.5 °F 29.8 in WSW 5 mph 5 mph 70% 0 in 0 W/m2
03:04 66.6 °F 56.1 °F 29.8 in West 4.4 mph 6 mph 69.2% 0 in 0 W/m2
03:09 66.6 °F 56.1 °F 29.8 in West 4.2 mph 5 mph 69% 0 in 0 W/m2
03:14 66.6 °F 56.1 °F 29.8 in WSW 3.8 mph 5 mph 69% 0 in 0 W/m2
03:19 66.6 °F 55.9 °F 29.8 in WSW 3 mph 5 mph 69% 0 in 0 W/m2
03:24 66.6 °F 55.9 °F 29.8 in WSW 3.4 mph 3 mph 69% 0 in 0 W/m2
03:28 66.6 °F 55.9 °F 29.8 in WSW 3.3 mph 4 mph 69% 0 in 0 W/m2
03:34 66.4 °F 55.9 °F 29.8 in WSW 3.2 mph 4 mph 69% 0 in 0 W/m2
03:39 66.4 °F 55.9 °F 29.8 in WSW 3.9 mph 5 mph 69.5% 0 in 0 W/m2
03:43 66.2 °F 56.1 °F 29.8 in WSW 3.4 mph 5 mph 70% 0 in 0 W/m2
03:49 66.2 °F 56.1 °F 29.8 in WSW 3.4 mph 4 mph 70% 0 in 0 W/m2
03:54 66 °F 55.9 °F 29.8 in WSW 3.4 mph 4 mph 70% 0 in 0 W/m2
03:59 66 °F 55.9 °F 29.8 in WSW 2.9 mph 4 mph 70% 0 in 0 W/m2
04:04 66 °F 55.6 °F 29.8 in WSW 3.1 mph 3 mph 69.2% 0 in 0 W/m2
04:09 66 °F 55.6 °F 29.8 in WSW 3.4 mph 3.1 mph 69% 0 in 0 W/m2
04:13 66.2 °F 55.6 °F 29.8 in WSW 3.6 mph 4 mph 69% 0 in 0 W/m2
04:19 66.2 °F 55.8 °F 29.8 in West 3.4 mph 4 mph 69% 0 in 0 W/m2
04:24 66.2 °F 55.8 °F 29.8 in West 3.7 mph 4 mph 69% 0 in 0 W/m2
04:29 66.2 °F 55.8 °F 29.8 in West 3.2 mph 4 mph 69% 0 in 0 W/m2
04:34 66.2 °F 55.8 °F 29.8 in West 2.7 mph 3 mph 69% 0 in 0 W/m2
04:39 66.2 °F 55.8 °F 29.8 in West 1 mph 3 mph 69% 0 in 0 W/m2
04:44 66.2 °F 55.8 °F 29.8 in West 1.1 mph 2 mph 69% 0 in 0 W/m2
04:49 66.2 °F 55.9 °F 29.8 in West 2.1 mph 2 mph 69.6% 0 in 0 W/m2
04:54 66 °F 55.9 °F 29.8 in WNW 2.7 mph 2 mph 70% 0 in 0 W/m2
04:59 66 °F 56.1 °F 29.8 in West 2.1 mph 3.1 mph 70.3% 0 in 0 W/m2
05:04 66 °F 56.3 °F 29.8 in WSW 3.4 mph 4 mph 70.8% 0 in 0 W/m2
05:09 65.8 °F 55.8 °F 29.8 in WSW 3.4 mph 4 mph 70.2% 0 in 0 W/m2
05:14 65.5 °F 55.9 °F 29.8 in WSW 1.9 mph 4 mph 71.1% 0 in 0 W/m2
05:19 65.3 °F 55.8 °F 29.8 in WSW 0.6 mph 2 mph 71% 0 in 0 W/m2
05:24 65.1 °F 55.8 °F 29.8 in WSW 3.2 mph 3 mph 71.8% 0 in 0 W/m2
05:29 64.9 °F 55.8 °F 29.8 in WSW 3.7 mph 4 mph 72% 0 in 0 W/m2
05:34 64.8 °F 55.6 °F 29.8 in WSW 2.5 mph 4 mph 72% 0 in 0 W/m2
05:39 64.6 °F 55.4 °F 29.8 in WSW 2.1 mph 3 mph 72% 0 in 0 W/m2
05:44 64.4 °F 55.4 °F 29.8 in WSW 2.6 mph 3 mph 72.9% 0 in 0 W/m2
05:49 64.2 °F 55.4 °F 29.8 in WSW 2.9 mph 3 mph 73% 0 in 0 W/m2
05:54 64 °F 55.4 °F 29.8 in West 3.2 mph 4 mph 73.3% 0 in 0 W/m2
05:59 63.9 °F 55.4 °F 29.8 in West 0.7 mph 3 mph 74% 0 in 0 W/m2
06:04 63.9 °F 55.4 °F 29.8 in West 0.6 mph 1 mph 74% 0 in 0 W/m2
06:09 63.9 °F 55.6 °F 29.8 in Calm   1 mph 74.7% 0 in 0 W/m2
06:14 63.7 °F 55.6 °F 29.8 in Calm     75% 0 in 0 W/m2
06:19 63.7 °F 55.9 °F 29.8 in West 2.4 mph 2 mph 75.8% 0 in 0 W/m2
06:24 63.7 °F 56.5 °F 29.8 in West 2.2 mph 3 mph 77.2% 0 in 0 W/m2
06:29 63.9 °F 57.2 °F 29.8 in WNW 3 mph 2.1 mph 79.3% 0 in 7 W/m2
06:34 63.9 °F 57.9 °F 29.8 in NW 3.2 mph 3 mph 80.8% 0 in 9 W/m2
06:39 63.9 °F 58.1 °F 29.8 in NW 3.4 mph 3 mph 81.8% 0 in 11 W/m2
06:44 63.9 °F 58.8 °F 29.8 in NW 3.5 mph 4 mph 83.3% 0 in 14 W/m2
06:49 63.9 °F 59.2 °F 29.8 in NNW 2.7 mph 4 mph 84.4% 0 in 18 W/m2
06:54 63.9 °F 59.4 °F 29.8 in NNW 2.5 mph 3 mph 85% 0 in 23 W/m2
06:59 64 °F 59.5 °F 29.8 in NNW 2.1 mph 3 mph 85.8% 0 in 28 W/m2
07:04 64 °F 59.9 °F 29.8 in NNW 2.5 mph 2.1 mph 86.4% 0 in 37 W/m2
07:09 64.2 °F 60.3 °F 29.8 in NNW 3.2 mph 3 mph 87% 0 in 39 W/m2
07:14 64.2 °F 60.3 °F 29.8 in NNW 3.4 mph 4 mph 87% 0 in 60 W/m2
07:19 64.4 °F 60.4 °F 29.8 in NNW 3 mph 4 mph 87% 0 in 67 W/m2
07:24 64.6 °F 60.6 °F 29.8 in NNW 2.6 mph 3 mph 87.2% 0 in 67 W/m2
07:29 64.8 °F 60.8 °F 29.8 in NNW 1.9 mph 3 mph 87.1% 0 in 60 W/m2
07:34 64.9 °F 61 °F 29.8 in NNW 2.7 mph 2.1 mph 87.2% 0 in 56 W/m2
07:39 65.1 °F 61.2 °F 29.8 in NNW 2.5 mph 3 mph 87.5% 0 in 72 W/m2
07:44 65.3 °F 61.2 °F 29.8 in NE 3 mph 4 mph 87% 0 in 76 W/m2
07:49 65.3 °F 61.3 °F 29.9 in NE 3.3 mph 4 mph 87% 0 in 81 W/m2
07:54 65.5 °F 61.5 °F 29.9 in NE 1.3 mph 4 mph 87% 0 in 98 W/m2
07:59 65.8 °F 61.9 °F 29.9 in NE 3 mph 3 mph 87% 0 in 142 W/m2
08:04 66 °F 62.1 °F 29.9 in NE 1.8 mph 4 mph 87% 0 in 113 W/m2
08:09 66.2 °F 62.2 °F 29.9 in NE 2.7 mph 2 mph 87% 0 in 186 W/m2
08:14 66.6 °F 62.4 °F 29.9 in NE 2.8 mph 3 mph 87% 0 in 216 W/m2
08:19 66.7 °F 62.8 °F 29.9 in NE 3 mph 3 mph 87% 0 in 220 W/m2
08:24 67.3 °F 63.1 °F 29.9 in NE 2.8 mph 4 mph 86.7% 0 in 211 W/m2
08:29 67.6 °F 62.8 °F 29.9 in NE 2.8 mph 3 mph 84.8% 0 in 153 W/m2
08:34 68 °F 62.6 °F 29.9 in NE 1.3 mph 3 mph 83.3% 0 in 209 W/m2
08:39 68.4 °F 62.8 °F 29.9 in NE 2.8 mph 3 mph 82.7% 0 in 213 W/m2
08:44 68.7 °F 63 °F 29.9 in ENE 3.4 mph 4 mph 81.8% 0 in 236 W/m2
08:49 69.1 °F 62.8 °F 29.9 in ENE 4 mph 4 mph 80.6% 0 in 265 W/m2
08:54 69.3 °F 62.4 °F 29.9 in East 3.9 mph 5 mph 79% 0 in 253 W/m2
08:59 69.4 °F 61.9 °F 29.9 in East 3.7 mph 5 mph 76.7% 0 in 148 W/m2
09:04 69.6 °F 61.5 °F 29.9 in East 3.8 mph 5 mph 75.8% 0 in 149 W/m2
09:09 69.6 °F 61.3 °F 29.9 in ENE 4.3 mph 5 mph 75% 0 in 211 W/m2
09:14 69.4 °F 61.3 °F 29.9 in ENE 3.4 mph 5 mph 75.7% 0 in 229 W/m2
09:19 69.4 °F 61.3 °F 29.9 in ENE 1.8 mph 4 mph 75.8% 0 in 251 W/m2
09:24 69.6 °F 61.5 °F 29.9 in ENE 2.6 mph 3 mph 75.6% 0 in 250 W/m2
09:29 69.8 °F 61.7 °F 29.9 in ENE 2.8 mph 4 mph 75.5% 0 in 299 W/m2
09:34 70.2 °F 61.9 °F 29.9 in East 3.8 mph 3.6 mph 75.2% 0 in 255 W/m2
09:39 70.3 °F 61.7 °F 29.9 in East 2.7 mph 5 mph 74.3% 0 in 278 W/m2
09:44 70.5 °F 62.1 °F 29.9 in ESE 3.5 mph 5 mph 74.3% 0 in 513 W/m2
09:49 71.1 °F 62.4 °F 29.9 in ESE 4 mph 5 mph 74.2% 0 in 561 W/m2
09:54 71.8 °F 62.8 °F 29.9 in ESE 6.5 mph 6 mph 73% 0 in 566 W/m2
09:59 72.7 °F 62.4 °F 29.9 in East 13 mph 13 mph 70.1% 0 in 603 W/m2
10:04 73.6 °F 62.4 °F 29.9 in ESE 12.1 mph 20 mph 68.2% 0 in 670 W/m2
10:09 74.1 °F 62.4 °F 29.9 in ESE 8.3 mph 16 mph 67% 0 in 691 W/m2
10:14 74.7 °F 62.6 °F 29.9 in ESE 11.7 mph 12 mph 66.3% 0 in 434 W/m2
10:19 74.7 °F 62.4 °F 29.9 in SE 10.7 mph 14 mph 65.6% 0 in 478 W/m2
10:24 74.5 °F 62.4 °F 29.9 in ESE 11.8 mph 13 mph 66% 0 in 527 W/m2
10:29 74.7 °F 62.6 °F 29.9 in ESE 10.9 mph 14 mph 66.5% 0 in 527 W/m2
10:34 74.8 °F 63.1 °F 29.9 in ESE 8.4 mph 12 mph 67% 0 in 512 W/m2
10:39 75 °F 62.6 °F 29.9 in ESE 12.9 mph 13 mph 65.3% 0 in 316 W/m2
10:44 74.8 °F 62.2 °F 29.9 in ESE 13.2 mph 16 mph 65% 0 in 383 W/m2
10:49 74.8 °F 62.6 °F 29.9 in ESE 11.7 mph 16 mph 65.8% 0 in 605 W/m2
10:54 75 °F 62.8 °F 29.9 in ESE 11 mph 14 mph 65.7% 0 in 605 W/m2
10:59 75.4 °F 62.8 °F 29.9 in ESE 10.1 mph 13 mph 64.7% 0 in 628 W/m2
11:04 75.9 °F 63.3 °F 29.9 in ESE 7.7 mph 12 mph 65.3% 0 in 534 W/m2
11:09 76.3 °F 63.3 °F 29.9 in ESE 8.1 mph 9 mph 64.3% 0 in 712 W/m2
11:14 76.8 °F 63.3 °F 29.9 in ESE 8.6 mph 10 mph 63.2% 0 in 663 W/m2
11:19 76.8 °F 63 °F 29.9 in SE 9.6 mph 12 mph 62.2% 0 in 640 W/m2
11:24 76.6 °F 63.1 °F 29.9 in ENE 7.9 mph 12 mph 62.9% 0 in 446 W/m2
11:29 76.6 °F 62.4 °F 29.9 in ESE 10.4 mph 12 mph 61.5% 0 in 677 W/m2
11:34 76.8 °F 62.1 °F 29.9 in East 12.3 mph 14 mph 60.5% 0 in 621 W/m2
11:39 76.8 °F 62.2 °F 29.9 in ESE 11.9 mph 15 mph 60.5% 0 in 633 W/m2
11:44 77.4 °F 62.6 °F 29.9 in ESE 9 mph 15 mph 60.3% 0 in 650 W/m2
11:49 77.9 °F 62.6 °F 29.9 in East 8.3 mph 10 mph 59.2% 0 in 715 W/m2
11:54 78.1 °F 62.2 °F 29.9 in East 9.1 mph 10 mph 58.4% 0 in 751 W/m2
11:59 78.3 °F 62.2 °F 29.9 in ESE 9.5 mph 14 mph 58% 0 in 784 W/m2
12:04 78.6 °F 62.2 °F 29.9 in East 9.3 mph 12 mph 57.2% 0 in 796 W/m2
12:09 78.8 °F 62.8 °F 29.9 in ENE 6.6 mph 12 mph 58% 0 in 802 W/m2
12:14 79.2 °F 63 °F 29.9 in SE 9.5 mph 8.2 mph 57.7% 0 in 807 W/m2
12:19 79 °F 62.8 °F 29.9 in ESE 9.5 mph 12 mph 57.5% 0 in 812 W/m2
12:24 78.8 °F 62.4 °F 29.9 in ESE 10.3 mph 12 mph 57.4% 0 in 816 W/m2
12:29 79 °F 62.6 °F 29.9 in ESE 9.5 mph 14 mph 57.3% 0 in 810 W/m2
12:34 78.8 °F 61.7 °F 29.9 in SE 9.6 mph 12 mph 55.9% 0 in 837 W/m2
12:39 79 °F 61.9 °F 29.9 in SE 7.3 mph 13 mph 55.8% 0 in 849 W/m2
12:44 79.3 °F 62.1 °F 29.9 in ESE 7.6 mph 9 mph 55.7% 0 in 842 W/m2
12:49 79.7 °F 61.5 °F 29.9 in ESE 6.7 mph 9 mph 53.9% 0 in 844 W/m2
12:54 79.9 °F 61.3 °F 29.9 in SE 7.2 mph 8.3 mph 53% 0 in 879 W/m2
12:59 79.9 °F 61.3 °F 29.9 in ESE 7.4 mph 12 mph 53% 0 in 872 W/m2
13:04 80.2 °F 60.1 °F 29.9 in ESE 9.6 mph 8.2 mph 50.3% 0 in 854 W/m2
13:09 80.2 °F 59.2 °F 29.9 in SE 8.5 mph 12 mph 48.8% 0 in 888 W/m2
13:14 80.2 °F 58.3 °F 29.9 in SE 8 mph 12 mph 47.3% 0 in 930 W/m2
13:19 80.4 °F 59.4 °F 29.9 in ESE 7.8 mph 10 mph 49% 0 in 911 W/m2
13:24 80.4 °F 59.2 °F 29.9 in East 7.2 mph 12 mph 48.5% 0 in 939 W/m2
13:29 81 °F 59.7 °F 29.9 in ESE 7.2 mph 9 mph 48.5% 0 in 935 W/m2
13:34 81 °F 59 °F 29.9 in East 5.9 mph 9 mph 47.3% 0 in 1023 W/m2
13:39 80.8 °F 59.2 °F 29.9 in NE 4.9 mph 7 mph 48% 0 in 1032 W/m2
13:44 80.8 °F 59.2 °F 29.9 in ESE 5 mph 8 mph 47.9% 0 in 896 W/m2
13:49 80.4 °F 59.5 °F 29.9 in North 3.2 mph 5 mph 48.8% 0 in 633 W/m2
13:54 80.6 °F 59.7 °F 29.9 in SW 3.6 mph 4 mph 49% 0 in 663 W/m2
13:59 81.5 °F 60.3 °F 29.9 in SSW 3 mph 5 mph 48.6% 0 in 649 W/m2
14:04 81.7 °F 60.8 °F 29.9 in ESE 6 mph 6.3 mph 49.2% 0 in 601 W/m2
14:09 81 °F 60.4 °F 29.9 in SE 5.1 mph 8 mph 49.8% 0 in 323 W/m2
14:14 80.6 °F 60.6 °F 29.9 in NE 4.8 mph 5 mph 50.7% 0 in 889 W/m2
14:19 81.3 °F 60.6 °F 29.9 in East 6.5 mph 7.3 mph 49.8% 0 in 909 W/m2
14:24 81.5 °F 59.9 °F 29.9 in SE 4.5 mph 9 mph 48.2% 0 in 909 W/m2
14:29 81.1 °F 59.2 °F 29.9 in SSE 4.7 mph 5 mph 47.5% 0 in 789 W/m2
14:34 81.1 °F 59.5 °F 29.9 in NW 4.2 mph 6 mph 48% 0 in 654 W/m2
14:39 80.8 °F 59.4 °F 29.9 in North 6.3 mph 7 mph 48.2% 0 in 550 W/m2
14:44 80.2 °F 59.5 °F 29.9 in North 5.2 mph 8 mph 49.2% 0 in 805 W/m2
14:49 81 °F 59.9 °F 29.9 in NE 4.6 mph 6 mph 49% 0 in 805 W/m2
14:54 81.5 °F 59.2 °F 29.9 in East 4.2 mph 6 mph 46.7% 0 in 868 W/m2
14:59 81.5 °F 59 °F 29.9 in NE 3.7 mph 6 mph 46.4% 0 in 863 W/m2
15:04 81.9 °F 58.8 °F 29.9 in NNE 3 mph 5 mph 45.7% 0 in 849 W/m2
15:09 81.7 °F 59 °F 29.9 in NNW 4.3 mph 4.1 mph 46% 0 in 835 W/m2
15:14 81.7 °F 59.4 °F 29.9 in NNW 4.9 mph 5.4 mph 46.8% 0 in 824 W/m2
15:19 81.7 °F 60.4 °F 29.9 in NNE 5.7 mph 7 mph 48.5% 0 in 800 W/m2
15:24 82.2 °F 60.1 °F 29.9 in NNE 5.7 mph 7 mph 47.1% 0 in 795 W/m2
15:29 82 °F 59.4 °F 29.9 in WSW 4.5 mph 7 mph 46.2% 0 in 775 W/m2
15:34 82 °F 59.2 °F 29.9 in SE 6.3 mph 9 mph 46% 0 in 761 W/m2
15:39 82.4 °F 59.4 °F 29.9 in SE 5 mph 6 mph 45.8% 0 in 752 W/m2
15:44 82.4 °F 59 °F 29.9 in ESE 4.2 mph 7 mph 45.2% 0 in 738 W/m2
15:49 82.8 °F 59.4 °F 29.9 in ESE 5.5 mph 6 mph 45.2% 0 in 738 W/m2
15:54 82.9 °F 58.8 °F 29.9 in ESE 4.7 mph 7 mph 44.2% 0 in 724 W/m2
15:59 82.6 °F 58.8 °F 29.9 in ESE 3.4 mph 7 mph 44.3% 0 in 721 W/m2
16:04 82.8 °F 58.8 °F 29.9 in ESE 3.9 mph 5 mph 44.3% 0 in 712 W/m2
16:09 82.9 °F 58.6 °F 29.9 in East 4.9 mph 7 mph 43.8% 0 in 703 W/m2
16:14 82.6 °F 59 °F 29.9 in East 3.7 mph 6 mph 44.8% 0 in 693 W/m2
16:19 82.8 °F 58.6 °F 29.9 in ESE 3.9 mph 6 mph 44.1% 0 in 682 W/m2
16:24 82.6 °F 58.8 °F 29.9 in ENE 3.4 mph 5 mph 44.8% 0 in 673 W/m2
16:29 82.6 °F 58.6 °F 29.9 in NNW 5.3 mph 5 mph 44.2% 0 in 670 W/m2
16:34 82.8 °F 59 °F 29.9 in NW 3.7 mph 7 mph 44.6% 0 in 657 W/m2
16:39 82.6 °F 59.2 °F 29.9 in NE 5.3 mph 5.1 mph 45.3% 0 in 647 W/m2
16:44 82.8 °F 59.5 °F 29.9 in ESE 4 mph 8 mph 45.4% 0 in 622 W/m2
16:49 82.9 °F 59 °F 29.9 in ESE 5 mph 5 mph 44.3% 0 in 612 W/m2
16:54 82.9 °F 58.8 °F 29.9 in East 3.5 mph 7 mph 44% 0 in 603 W/m2
16:58 82.9 °F 58.6 °F 29.9 in ESE 4.8 mph 5 mph 43.8% 0 in 585 W/m2
17:04 82.9 °F 58.3 °F 29.9 in SE 4.7 mph 6 mph 43.3% 0 in 573 W/m2
17:09 82.8 °F 58.3 °F 29.9 in SE 4.9 mph 7 mph 43.4% 0 in 564 W/m2
17:14 82.6 °F 58.5 °F 29.9 in ESE 5.9 mph 7 mph 44% 0 in 550 W/m2
17:19 82.4 °F 58.1 °F 29.9 in SE 3.7 mph 7 mph 43.8% 0 in 536 W/m2
17:24 82 °F 57.7 °F 29.9 in SE 4.6 mph 5 mph 43.9% 0 in 522 W/m2
17:29 82 °F 57.7 °F 29.9 in SE 3.4 mph 6 mph 43.5% 0 in 504 W/m2
17:34 82.6 °F 58.5 °F 29.9 in East 3.9 mph 4.1 mph 44.2% 0 in 492 W/m2
17:39 82.8 °F 59.4 °F 29.9 in East 5.1 mph 5 mph 45.2% 0 in 483 W/m2
17:44 82.8 °F 59.4 °F 29.9 in ENE 4.5 mph 6 mph 45.1% 0 in 471 W/m2
17:49 83.1 °F 59.2 °F 29.9 in East 5.8 mph 6.1 mph 44.4% 0 in 455 W/m2
17:54 82.9 °F 59 °F 29.9 in East 3.7 mph 8 mph 44.3% 0 in 436 W/m2
17:59 82.4 °F 58.8 °F 29.9 in East 3.2 mph 5 mph 44.9% 0 in 424 W/m2
18:04 82.2 °F 59 °F 29.9 in ENE 2.3 mph 4 mph 45.4% 0 in 415 W/m2
18:09 82.2 °F 59.4 °F 29.9 in North 3.5 mph 4 mph 46% 0 in 410 W/m2
18:14 82 °F 59.5 °F 29.9 in WNW 3.2 mph 4 mph 46.3% 0 in 313 W/m2
18:19 82 °F 59.9 °F 29.9 in SW 3.1 mph 3 mph 47% 0 in 146 W/m2
18:24 81.7 °F 60.1 °F 29.9 in South 3.5 mph 3.8 mph 48% 0 in 332 W/m2
18:29 81.5 °F 60.1 °F 29.9 in SE 3.7 mph 5 mph 48.5% 0 in 371 W/m2
18:34 81.5 °F 60.3 °F 29.9 in East 4.4 mph 4 mph 48.7% 0 in 367 W/m2
18:39 81.7 °F 60.6 °F 29.9 in East 4.3 mph 6 mph 48.8% 0 in 332 W/m2
18:44 81.7 °F 60.8 °F 29.9 in East 5.2 mph 6 mph 49.3% 0 in 306 W/m2
18:49 81.9 °F 61.2 °F 29.9 in ESE 4.2 mph 7 mph 49.8% 0 in 290 W/m2
18:54 81.7 °F 60.6 °F 29.9 in SE 4.7 mph 5 mph 49% 0 in 271 W/m2
18:59 81.5 °F 60.3 °F 29.9 in ESE 4.2 mph 7 mph 48.5% 0 in 250 W/m2
19:04 81.5 °F 60.6 °F 29.9 in ESE 5.4 mph 5.4 mph 49.2% 0 in 227 W/m2
19:09 81.5 °F 61.3 °F 29.9 in East 5.1 mph 8 mph 50.4% 0 in 207 W/m2
19:14 81.5 °F 61.5 °F 29.9 in East 4.7 mph 6 mph 51% 0 in 190 W/m2
19:19 81.5 °F 61.5 °F 29.9 in East 4.8 mph 6 mph 50.8% 0 in 171 W/m2
19:24 81.3 °F 61.5 °F 29.9 in East 3.5 mph 5 mph 51% 0 in 156 W/m2
19:29 81.3 °F 61.5 °F 29.9 in East 3.4 mph 3 mph 51.2% 0 in 137 W/m2
19:34 81.1 °F 61.9 °F 29.9 in ESE 3.5 mph 5 mph 52% 0 in 120 W/m2
19:39 81 °F 62.2 °F 29.9 in ESE 4 mph 4 mph 53.2% 0 in 104 W/m2
19:44 80.6 °F 62.4 °F 29.9 in SE 4.1 mph 5 mph 53.9% 0 in 88 W/m2
19:49 80.4 °F 62.4 °F 29.9 in SE 3.7 mph 5 mph 54.2% 0 in 74 W/m2
19:54 80.2 °F 62.4 °F 29.9 in SE 3.6 mph 4 mph 54.5% 0 in 62 W/m2
19:59 79.9 °F 62.2 °F 29.9 in ESE 3.2 mph 4 mph 55% 0 in 54 W/m2
20:04 79.7 °F 62.2 °F 29.9 in SE 3.3 mph 4 mph 55.2% 0 in 44 W/m2
20:09 79.5 °F 62.2 °F 29.9 in SE 3.4 mph 4 mph 55.8% 0 in 33 W/m2
20:14 79.2 °F 62.4 °F 29.9 in SE 3.4 mph 4 mph 56.5% 0 in 23 W/m2
20:18 79 °F 62.6 °F 29.9 in SE 3.4 mph 4 mph 57.3% 0 in 18 W/m2
20:24 78.8 °F 62.6 °F 29.9 in SE 3 mph 4 mph 57.8% 0 in 14 W/m2
20:29 78.4 °F 62.4 °F 29.9 in SE 2.5 mph 3 mph 57.8% 0 in 9 W/m2
20:34 78.1 °F 61.7 °F 29.9 in SE 3.3 mph 3 mph 57% 0 in 5 W/m2
20:39 77.9 °F 61.3 °F 29.9 in SE 3.5 mph 4 mph 57% 0 in 0 W/m2
20:44 77.5 °F 61.2 °F 29.9 in SE 3.4 mph 4 mph 57% 0 in 0 W/m2
20:49 77.2 °F 60.8 °F 29.9 in SE 3.7 mph 4 mph 57% 0 in 0 W/m2
20:54 77 °F 60.8 °F 29.9 in SE 3.2 mph 5 mph 57.3% 0 in 0 W/m2
20:59 76.8 °F 61 °F 29.9 in SE 3.4 mph 3 mph 58% 0 in 0 W/m2
21:04 76.6 °F 61 °F 29.9 in ESE 4.7 mph 4 mph 58.5% 0 in 0 W/m2
21:09 76.3 °F 61 °F 29.9 in ESE 3.5 mph 6 mph 59% 0 in 0 W/m2
21:14 76.1 °F 61.2 °F 29.9 in ESE 3.6 mph 5 mph 59.7% 0 in 0 W/m2
21:19 75.9 °F 61.2 °F 29.9 in ESE 3.6 mph 4 mph 60% 0 in 0 W/m2
21:24 75.7 °F 60.8 °F 29.9 in ESE 3.7 mph 4 mph 60% 0 in 0 W/m2
21:29 75.6 °F 60.8 °F 29.9 in ESE 3.4 mph 5 mph 60.3% 0 in 0 W/m2
21:34 75.4 °F 61 °F 29.9 in SE 3.1 mph 4 mph 61% 0 in 0 W/m2
21:39 75 °F 60.8 °F 29.9 in SE 3.4 mph 4 mph 61% 0 in 0 W/m2
21:44 74.8 °F 60.6 °F 29.9 in SE 3.7 mph 4 mph 61.3% 0 in 0 W/m2
21:49 74.7 °F 60.8 °F 29.9 in SE 3.4 mph 4 mph 62% 0 in 0 W/m2
21:54 74.5 °F 60.6 °F 29.9 in SE 3 mph 4 mph 62% 0 in 0 W/m2
21:59 74.3 °F 61 °F 29.9 in SE 3.2 mph 3 mph 63% 0 in 0 W/m2
22:04 74.1 °F 60.8 °F 29.9 in SE 3.8 mph 3 mph 63% 0 in 0 W/m2
22:09 73.9 °F 60.6 °F 29.9 in SE 3.8 mph 5 mph 63% 0 in 0 W/m2
22:14 73.9 °F 60.6 °F 29.9 in SE 5 mph 5 mph 63.4% 0 in 0 W/m2
22:19 73.8 °F 60.8 °F 29.9 in SE 4.2 mph 6 mph 64% 0 in 0 W/m2
22:24 73.8 °F 60.8 °F 29.9 in SE 3.3 mph 6 mph 64% 0 in 0 W/m2
22:29 73.6 °F 60.8 °F 29.9 in SE 3.4 mph 4 mph 64.2% 0 in 0 W/m2
22:34 73.4 °F 61 °F 29.9 in SE 3.4 mph 4 mph 65% 0 in 0 W/m2
22:39 73.2 °F 60.8 °F 29.9 in SE 4.4 mph 4 mph 65% 0 in 0 W/m2
22:44 73 °F 61 °F 29.9 in SE 4.3 mph 6 mph 65.7% 0 in 0 W/m2
22:49 72.9 °F 61 °F 29.9 in SE 3.9 mph 5 mph 66% 0 in 0 W/m2
22:53 72.9 °F 60.8 °F 29.9 in SE 3.7 mph 5 mph 66% 0 in 0 W/m2
22:59 72.7 °F 60.6 °F 29.9 in SE 4.3 mph 6 mph 66% 0 in 0 W/m2
23:04 72.5 °F 60.6 °F 29.9 in SE 4.7 mph 5 mph 66% 0 in 0 W/m2
23:09 72.5 °F 60.4 °F 29.9 in SE 4.3 mph 6 mph 66% 0 in 0 W/m2
23:14 72.3 °F 60.6 °F 29.9 in SE 5.2 mph 6 mph 66.5% 0 in 0 W/m2
23:19 72.1 °F 60.6 °F 29.9 in SE 4.4 mph 6 mph 67% 0 in 0 W/m2
23:24 72 °F 60.4 °F 29.9 in SE 4 mph 6 mph 67% 0 in 0 W/m2
23:29 71.8 °F 60.3 °F 29.9 in SE 4.2 mph 7 mph 67% 0 in 0 W/m2
23:34 71.6 °F 60.4 °F 29.9 in SE 4.3 mph 5 mph 67.7% 0 in 0 W/m2
23:39 71.4 °F 60.4 °F 29.9 in SE 3.6 mph 5 mph 68% 0 in 0 W/m2
23:44 71.2 °F 60.3 °F 29.9 in SE 3.9 mph 4 mph 68% 0 in 0 W/m2
23:49 71.1 °F 60.4 °F 29.9 in SE 3.4 mph 5 mph 68.8% 0 in 0 W/m2
23:54 70.9 °F 60.3 °F 29.9 in ESE 3 mph 4 mph 69% 0 in 0 W/m2
23:59 70.7 °F 60.1 °F 30 in ESE 2.9 mph 3 mph 69% 0 in 0 W/m2
Lodi Weather
Compliments of Weather Underground - 3.5 mb